Time;durP1;ratioP1;P1;durP2;ratioP2;P2;SDS_P1;SDS_P2;PMS_P1;PMS_P2;Temp;Humidity;BMP_temperature;BMP_pressure;BME280_temperature;BME280_humidity;BME280_pressure;Samples;Min_cycle;Max_cycle;Signal;HPM_P1;HPM_P2
2023/04/07 00:00:04;;;;;;;17.80;10.27;;;0.00;99.90;;;;;;8244287;28;20224;-70
2023/04/07 00:04:18;;;;;;;20.57;12.67;;;0.00;99.90;;;;;;8272232;28;20197;-69
2023/04/07 00:08:19;;;;;;;22.33;14.17;;;0.00;99.90;;;;;;8256019;28;20227;-69
2023/04/07 00:12:20;;;;;;;26.23;13.03;;;0.10;99.90;;;;;;8238673;28;20270;-70
2023/04/07 00:16:24;;;;;;;21.53;11.37;;;0.10;99.90;;;;;;8259470;28;20199;-70
2023/04/07 00:20:25;;;;;;;17.57;10.17;;;0.10;99.90;;;;;;8261560;28;20237;-69
2023/04/07 00:24:30;;;;;;;16.07;10.10;;;0.10;99.90;;;;;;8256987;28;20289;-69
2023/04/07 00:28:31;;;;;;;23.63;13.27;;;0.10;99.90;;;;;;8260192;28;20274;-69
2023/04/07 00:32:32;;;;;;;26.13;15.33;;;0.10;99.90;;;;;;8242873;28;20210;-69
2023/04/07 00:36:33;;;;;;;30.37;15.77;;;0.20;99.90;;;;;;8249125;28;20191;-70
2023/04/07 00:40:34;;;;;;;34.90;18.37;;;0.20;99.90;;;;;;8257396;28;20179;-71
2023/04/07 00:44:41;;;;;;;43.07;21.40;;;0.20;99.90;;;;;;8235022;28;20191;-70
2023/04/07 00:48:43;;;;;;;41.53;23.63;;;0.30;99.90;;;;;;8241720;28;20190;-71
2023/04/07 00:52:45;;;;;;;42.03;22.53;;;0.30;99.90;;;;;;8251686;28;20207;-70
2023/04/07 00:56:46;;;;;;;40.87;21.67;;;0.30;99.90;;;;;;8256220;28;20203;-70
2023/04/07 01:01:19;;;;;;;37.13;20.33;;;0.40;99.90;;;;;;8250564;28;20187;-71
2023/04/07 01:05:37;;;;;;;33.73;19.40;;;0.50;99.90;;;;;;8254379;28;20187;-72
2023/04/07 01:10:03;;;;;;;35.70;20.37;;;0.60;99.90;;;;;;8252800;28;20183;-70
2023/04/07 01:14:06;;;;;;;34.50;18.40;;;0.70;85.40;;;;;;8241233;28;20222;-71
2023/04/07 01:18:18;;;;;;;27.10;16.27;;;0.80;40.00;;;;;;8241258;28;20180;-70
2023/04/07 01:22:43;;;;;;;30.57;15.63;;;0.90;1.00;;;;;;8238806;28;20191;-70
2023/04/07 01:26:48;;;;;;;25.03;16.07;;;1.00;1.00;;;;;;8250986;28;20187;-70
2023/04/07 01:30:51;;;;;;;27.40;16.10;;;1.00;1.00;;;;;;8262269;28;20204;-70
2023/04/07 01:34:53;;;;;;;24.97;15.70;;;1.00;1.00;;;;;;8245217;28;20194;-70
2023/04/07 01:38:54;;;;;;;27.70;16.33;;;1.00;1.00;;;;;;8242567;28;20203;-70
2023/04/07 01:43:03;;;;;;;28.13;16.73;;;1.00;1.00;;;;;;8245900;28;20187;-69
2023/04/07 01:47:05;;;;;;;30.17;19.27;;;1.10;1.20;;;;;;8254160;28;20191;-71
2023/04/07 01:51:26;;;;;;;;;;;;;;;;;;;;;
2023/04/07 01:55:28;;;;;;;32.00;19.73;;;1.20;1.00;;;;;;8257111;28;20225;-76
2023/04/07 01:59:29;;;;;;;29.80;18.43;;;1.30;1.00;;;;;;8256342;28;20211;-76
2023/04/07 02:03:40;;;;;;;29.33;17.47;;;1.30;1.00;;;;;;8250264;28;20184;-75
2023/04/07 02:08:01;;;;;;;29.47;17.20;;;1.40;15.80;;;;;;8248266;28;20214;-74
2023/04/07 02:12:08;;;;;;;28.50;17.10;;;1.40;26.20;;;;;;8253713;28;20198;-75
2023/04/07 02:20:35;;;;;;;29.10;17.63;;;1.40;46.40;;;;;;8245703;28;20241;-75
2023/04/07 02:24:46;;;;;;;26.73;17.07;;;1.40;51.90;;;;;;8259942;28;20422;-75
2023/04/07 02:28:47;;;;;;;28.27;16.83;;;1.40;60.70;;;;;;8256563;28;20213;-75
2023/04/07 02:32:48;;;;;;;30.33;17.73;;;1.40;70.10;;;;;;8261227;28;20221;-75
2023/04/07 02:36:49;;;;;;;35.37;19.27;;;1.40;89.40;;;;;;8250885;28;20271;-71
2023/04/07 02:41:00;;;;;;;30.90;18.40;;;1.50;98.30;;;;;;8251897;28;20191;-71
2023/04/07 02:45:02;;;;;;;26.83;16.27;;;1.40;96.20;;;;;;8190121;28;20200;-71
2023/04/07 02:49:04;;;;;;;30.63;17.73;;;1.40;99.90;;;;;;8205750;28;20263;-71
2023/04/07 02:53:07;;;;;;;29.03;17.40;;;1.40;99.90;;;;;;8212920;28;20239;-71
2023/04/07 02:57:12;;;;;;;26.50;16.57;;;1.50;99.90;;;;;;8217944;28;20214;-71
2023/04/07 03:01:13;;;;;;;26.93;16.10;;;1.50;99.90;;;;;;8209271;28;20287;-71
2023/04/07 03:05:15;;;;;;;28.63;16.77;;;1.50;99.90;;;;;;8211289;28;20219;-71
2023/04/07 03:09:15;;;;;;;27.07;15.10;;;1.50;99.90;;;;;;8212547;28;20192;-71
2023/04/07 03:13:18;;;;;;;24.03;14.53;;;1.60;99.90;;;;;;8230563;28;20224;-71
2023/04/07 03:17:31;;;;;;;25.83;16.17;;;1.60;99.30;;;;;;8266695;28;20207;-72
2023/04/07 03:21:32;;;;;;;23.73;14.50;;;1.70;74.50;;;;;;8260509;28;20187;-71
2023/04/07 03:25:33;;;;;;;27.07;14.77;;;1.70;23.50;;;;;;8262326;28;20183;-71
2023/04/07 03:29:34;;;;;;;23.83;14.57;;;1.70;1.00;;;;;;8265397;28;20242;-71
2023/04/07 03:33:35;;;;;;;22.80;14.17;;;1.70;23.20;;;;;;8259928;28;20215;-71
2023/04/07 03:37:36;;;;;;;21.67;14.53;;;1.70;24.20;;;;;;8248274;28;20190;-71
2023/04/07 03:42:01;;;;;;;23.00;14.00;;;1.80;33.90;;;;;;8265776;28;20202;-75
2023/04/07 03:46:25;;;;;;;26.47;15.20;;;1.90;47.10;;;;;;8252197;28;20195;-72
2023/04/07 03:51:00;;;;;;;;;;;;;;;;;;;;;
2023/04/07 03:55:26;;;;;;;23.90;14.50;;;1.90;50.10;;;;;;8339497;28;20198;-73
2023/04/07 03:59:37;;;;;;;25.13;15.17;;;2.00;56.40;;;;;;8329954;28;20215;-72
2023/04/07 04:03:47;;;;;;;21.77;13.97;;;2.00;65.00;;;;;;8340951;28;20208;-72
2023/04/07 04:07:51;;;;;;;22.97;13.53;;;2.00;73.50;;;;;;8345682;28;20193;-74
2023/04/07 04:11:52;;;;;;;22.00;13.47;;;2.10;95.70;;;;;;8324040;28;20203;-73
2023/04/07 04:15:54;;;;;;;20.93;13.13;;;2.10;99.90;;;;;;8327491;28;20241;-74
2023/04/07 04:19:57;;;;;;;22.27;12.00;;;2.10;92.20;;;;;;8344322;28;20198;-71
2023/04/07 04:24:02;;;;;;;25.73;14.93;;;2.10;50.00;;;;;;8321096;28;20188;-72
2023/04/07 04:28:06;;;;;;;25.57;15.50;;;2.20;56.50;;;;;;8317215;28;20354;-73
2023/04/07 04:32:16;;;;;;;20.23;12.63;;;2.20;43.40;;;;;;8318934;28;20212;-74
2023/04/07 04:36:18;;;;;;;21.23;12.73;;;2.20;20.60;;;;;;8337480;28;20189;-74
2023/04/07 04:40:24;;;;;;;16.17;10.77;;;2.30;7.40;;;;;;8338869;28;20208;-73
2023/04/07 04:44:28;;;;;;;20.30;12.67;;;2.30;7.00;;;;;;8319056;28;20186;-73
2023/04/07 04:48:31;;;;;;;22.03;11.83;;;2.40;1.00;;;;;;8331227;28;20198;-74
2023/04/07 04:52:33;;;;;;;20.27;11.90;;;2.40;1.00;;;;;;8316236;28;20241;-74
2023/04/07 04:56:41;;;;;;;17.23;10.97;;;2.40;1.00;;;;;;8285781;28;20298;-74
2023/04/07 05:00:56;;;;;;;19.87;11.87;;;2.50;1.00;;;;;;8290724;28;20179;-73
2023/04/07 05:05:00;;;;;;;17.07;11.30;;;2.50;1.00;;;;;;8292660;28;20186;-71
2023/04/07 05:09:01;;;;;;;18.97;12.07;;;2.60;1.00;;;;;;8306136;28;20253;-74
2023/04/07 05:13:06;;;;;;;17.97;10.90;;;2.60;1.00;;;;;;8305595;28;20206;-73
2023/04/07 05:17:25;;;;;;;16.13;11.30;;;2.70;1.00;;;;;;8293685;28;20183;-71
2023/04/07 05:21:55;;;;;;;15.27;10.50;;;2.70;1.00;;;;;;8298724;28;20187;-70
2023/04/07 05:25:56;;;;;;;17.07;10.97;;;2.70;1.00;;;;;;8279794;28;20195;-71
2023/04/07 05:30:18;;;;;;;20.60;11.40;;;2.70;12.40;;;;;;8287463;28;20188;-72
2023/04/07 05:34:19;;;;;;;19.40;11.93;;;2.70;70.00;;;;;;8308436;28;20209;-72
2023/04/07 05:38:23;;;;;;;18.30;11.47;;;2.70;91.80;;;;;;8282667;28;20191;-71
2023/04/07 05:42:25;;;;;;;17.00;10.77;;;2.70;78.60;;;;;;8285938;28;20250;-71
2023/04/07 05:46:27;;;;;;;19.90;10.67;;;2.80;25.80;;;;;;8302935;28;20221;-71
2023/04/07 05:50:29;;;;;;;16.23;11.37;;;2.90;23.40;;;;;;8309168;28;20195;-72
2023/04/07 05:54:30;;;;;;;13.53;9.60;;;3.00;8.90;;;;;;8289287;28;20245;-71
2023/04/07 05:58:31;;;;;;;15.97;10.73;;;3.20;14.60;;;;;;8305919;28;20175;-71
2023/04/07 06:02:50;;;;;;;16.17;10.30;;;3.40;9.40;;;;;;8279172;28;20181;-71
2023/04/07 06:06:54;;;;;;;18.60;10.30;;;3.50;5.80;;;;;;8285848;28;20224;-72
2023/04/07 06:10:55;;;;;;;18.03;11.00;;;3.60;1.00;;;;;;8285513;28;20190;-71
2023/04/07 06:14:56;;;;;;;13.73;10.07;;;3.60;1.00;;;;;;8301326;28;20185;-71
2023/04/07 06:18:57;;;;;;;17.80;10.67;;;3.60;1.00;;;;;;8297442;28;20175;-74
2023/04/07 06:22:58;;;;;;;15.40;10.70;;;3.70;1.00;;;;;;8283095;28;20222;-73
2023/04/07 06:27:06;;;;;;;15.47;10.47;;;3.80;1.00;;;;;;8280160;28;20214;-73
2023/04/07 06:31:07;;;;;;;18.23;13.30;;;3.70;1.00;;;;;;8296496;28;20225;-71
2023/04/07 06:35:08;;;;;;;15.80;10.73;;;3.70;1.00;;;;;;8298908;28;20188;-71
2023/04/07 06:39:12;;;;;;;17.40;10.93;;;3.80;1.00;;;;;;8299132;28;20221;-71
2023/04/07 06:43:18;;;;;;;17.50;11.27;;;3.90;1.00;;;;;;8285402;28;20187;-70
2023/04/07 06:47:20;;;;;;;14.10;10.77;;;3.90;1.00;;;;;;8296908;28;20271;-70
2023/04/07 06:51:21;;;;;;;16.00;9.87;;;3.90;1.00;;;;;;8298691;28;20224;-70
2023/04/07 06:55:45;;;;;;;14.00;9.80;;;4.00;1.00;;;;;;8297109;28;20190;-74
2023/04/07 06:59:46;;;;;;;18.93;11.10;;;4.10;1.00;;;;;;8297179;28;20234;-74
2023/04/07 07:04:11;;;;;;;16.27;9.77;;;4.20;1.00;;;;;;8301104;28;20193;-72
2023/04/07 07:08:12;;;;;;;15.70;10.40;;;4.20;1.00;;;;;;8277495;28;20197;-74
2023/04/07 07:12:16;;;;;;;12.90;9.23;;;4.10;1.00;;;;;;8289961;28;20320;-73
2023/04/07 07:16:18;;;;;;;16.67;9.40;;;4.20;1.00;;;;;;8289046;28;20185;-73
2023/04/07 07:20:19;;;;;;;14.53;9.37;;;4.20;1.00;;;;;;8290283;28;20183;-74
2023/04/07 07:24:20;;;;;;;15.87;9.43;;;4.10;1.00;;;;;;8306904;28;20187;-73
2023/04/07 07:28:22;;;;;;;16.23;10.33;;;4.10;1.00;;;;;;8283046;28;20193;-74
2023/04/07 07:32:23;;;;;;;15.30;9.73;;;4.20;1.00;;;;;;8292354;28;20214;-74
2023/04/07 07:36:25;;;;;;;14.20;9.97;;;4.40;1.00;;;;;;8292128;28;20194;-72
2023/04/07 07:40:26;;;;;;;18.33;9.63;;;4.50;1.00;;;;;;8280804;28;20277;-74
2023/04/07 07:44:27;;;;;;;12.67;8.77;;;4.60;1.00;;;;;;8282152;28;20195;-72
2023/04/07 07:48:28;;;;;;;14.33;8.90;;;4.80;1.00;;;;;;8301352;28;20190;-73
2023/04/07 07:52:30;;;;;;;12.80;8.80;;;4.90;1.00;;;;;;8289256;28;20225;-72
2023/04/07 07:56:31;;;;;;;11.97;8.60;;;5.00;1.00;;;;;;8306189;28;20194;-73
2023/04/07 08:00:31;;;;;;;20.80;9.80;;;5.00;1.00;;;;;;8304713;28;20258;-73
2023/04/07 08:04:32;;;;;;;12.27;8.17;;;5.10;1.00;;;;;;8291815;28;20221;-72
2023/04/07 08:08:34;;;;;;;8.57;6.60;;;4.90;1.00;;;;;;8307061;28;20177;-73
2023/04/07 08:12:35;;;;;;;10.97;7.83;;;5.10;1.00;;;;;;8302562;28;20253;-73
2023/04/07 08:16:36;;;;;;;11.53;8.27;;;4.90;1.00;;;;;;8302237;28;20198;-75
2023/04/07 08:20:37;;;;;;;13.63;9.30;;;4.70;1.00;;;;;;8288560;28;20190;-73
2023/04/07 08:24:44;;;;;;;9.00;6.40;;;4.60;1.00;;;;;;8283915;28;20182;-73
2023/04/07 08:28:50;;;;;;;10.60;6.70;;;4.80;1.00;;;;;;8298505;28;20293;-74
2023/04/07 08:32:51;;;;;;;14.17;9.17;;;4.50;1.00;;;;;;8286196;28;20327;-74
2023/04/07 08:36:52;;;;;;;11.03;7.20;;;4.50;1.00;;;;;;8277817;28;20193;-71
2023/04/07 08:41:07;;;;;;;11.07;7.57;;;4.60;1.00;;;;;;8283745;28;20195;-71
2023/04/07 08:45:15;;;;;;;12.03;7.77;;;4.60;1.00;;;;;;8301184;28;20189;-71
2023/04/07 08:49:24;;;;;;;14.73;9.10;;;4.40;1.00;;;;;;8290015;28;20219;-71
2023/04/07 08:53:31;;;;;;;16.93;11.07;;;4.50;1.00;;;;;;8293635;28;20224;-73
2023/04/07 08:57:33;;;;;;;13.73;8.37;;;4.50;1.00;;;;;;8307284;28;20196;-72
2023/04/07 09:01:35;;;;;;;10.87;6.60;;;4.70;1.00;;;;;;8297257;28;20205;-69
2023/04/07 09:05:40;;;;;;;9.03;5.80;;;4.90;1.00;;;;;;8310525;28;20183;-73
2023/04/07 09:09:44;;;;;;;11.97;6.53;;;4.80;1.00;;;;;;8310111;28;20190;-73
2023/04/07 09:13:48;;;;;;;14.07;8.37;;;4.90;1.00;;;;;;8302023;28;20345;-73
2023/04/07 09:17:49;;;;;;;7.33;4.67;;;5.10;1.00;;;;;;8298202;28;20306;-73
2023/04/07 09:21:52;;;;;;;8.20;4.67;;;4.90;1.00;;;;;;8312260;28;20206;-73
2023/04/07 09:25:53;;;;;;;6.57;4.30;;;4.90;1.00;;;;;;8296187;28;20233;-73
2023/04/07 09:30:11;;;;;;;7.77;4.47;;;4.90;1.00;;;;;;8312329;28;20190;-74
2023/04/07 09:34:28;;;;;;;9.97;5.30;;;4.70;1.00;;;;;;8316447;28;20213;-73
2023/04/07 09:38:39;;;;;;;10.40;5.47;;;4.30;1.00;;;;;;8315303;28;20253;-74
2023/04/07 09:42:49;;;;;;;5.93;4.13;;;4.20;1.00;;;;;;8294700;28;20225;-74
2023/04/07 09:46:57;;;;;;;5.73;4.23;;;4.20;1.00;;;;;;8293137;28;20225;-73
2023/04/07 09:51:06;;;;;;;5.43;4.27;;;4.20;1.00;;;;;;8298776;28;20206;-73
2023/04/07 09:55:08;;;;;;;10.57;7.60;;;4.20;1.00;;;;;;8308922;28;20200;-71
2023/04/07 09:59:09;;;;;;;10.80;5.27;;;4.30;1.00;;;;;;8294377;28;20186;-71
2023/04/07 10:03:11;;;;;;;7.10;4.07;;;4.50;1.00;;;;;;8289191;28;20257;-71
2023/04/07 10:07:12;;;;;;;7.10;4.23;;;4.50;1.00;;;;;;8284496;28;20261;-71
2023/04/07 10:11:22;;;;;;;6.80;5.00;;;4.40;1.00;;;;;;8291414;28;20213;-71
2023/04/07 10:15:24;;;;;;;5.60;3.70;;;4.20;1.00;;;;;;8306505;28;20203;-72
2023/04/07 10:19:28;;;;;;;7.43;4.33;;;4.30;1.00;;;;;;8290368;28;20327;-72
2023/04/07 10:23:58;;;;;;;6.10;3.93;;;4.30;1.00;;;;;;8309648;28;20196;-71
2023/04/07 10:28:08;;;;;;;7.63;3.90;;;4.40;1.00;;;;;;8289239;28;20269;-72
2023/04/07 10:32:13;;;;;;;8.57;4.63;;;4.80;1.00;;;;;;8286018;28;20547;-75
2023/04/07 10:36:14;;;;;;;7.77;4.30;;;4.70;1.00;;;;;;8305106;28;20177;-71
2023/04/07 10:40:19;;;;;;;6.63;4.50;;;4.90;1.00;;;;;;8296323;28;20187;-73
2023/04/07 10:44:47;;;;;;;8.27;4.67;;;4.50;1.00;;;;;;8314274;28;20190;-71
2023/04/07 10:49:10;;;;;;;7.47;4.97;;;4.10;5.00;;;;;;8290514;28;20211;-71
2023/04/07 10:53:13;;;;;;;5.90;4.70;;;4.10;41.70;;;;;;8291517;28;20217;-73
2023/04/07 10:57:15;;;;;;;9.13;5.30;;;4.20;34.90;;;;;;8308105;28;20265;-72
2023/04/07 11:01:18;;;;;;;7.73;4.50;;;4.10;60.50;;;;;;8301626;28;20219;-72
2023/04/07 11:05:23;;;;;;;6.50;4.53;;;4.00;99.90;;;;;;8309475;28;20184;-73
2023/04/07 11:09:27;;;;;;;7.03;5.17;;;4.00;99.90;;;;;;8291158;28;20233;-73
2023/04/07 11:13:41;;;;;;;7.63;4.67;;;4.00;99.90;;;;;;8308507;28;20208;-73
2023/04/07 11:17:42;;;;;;;7.90;5.20;;;4.10;99.90;;;;;;8285548;28;20253;-70
2023/04/07 11:21:43;;;;;;;8.50;5.80;;;4.20;99.90;;;;;;8287840;28;20215;-71
2023/04/07 11:25:47;;;;;;;7.20;4.83;;;4.20;99.90;;;;;;8288196;28;20199;-71
2023/04/07 11:29:49;;;;;;;7.27;5.40;;;4.20;99.90;;;;;;8306409;28;20263;-70
2023/04/07 11:33:58;;;;;;;7.13;5.17;;;4.20;99.90;;;;;;8304315;28;20216;-74
2023/04/07 11:38:00;;;;;;;7.83;5.50;;;4.20;99.90;;;;;;8287407;28;20198;-71
2023/04/07 11:42:01;;;;;;;10.23;6.57;;;4.20;99.90;;;;;;8283933;28;20203;-71
2023/04/07 11:46:04;;;;;;;10.73;5.97;;;4.20;99.90;;;;;;8301123;28;20179;-70
2023/04/07 11:50:06;;;;;;;8.63;5.87;;;4.20;99.90;;;;;;8307283;28;20264;-71
2023/04/07 11:54:07;;;;;;;9.80;5.77;;;4.30;99.90;;;;;;8288600;28;20212;-70
2023/04/07 11:58:17;;;;;;;8.77;6.03;;;4.60;99.90;;;;;;8304189;28;20183;-71
2023/04/07 12:02:32;;;;;;;14.13;6.57;;;4.80;71.10;;;;;;8296228;28;20210;-70
2023/04/07 12:06:37;;;;;;;10.13;6.87;;;5.10;58.80;;;;;;8295966;28;20209;-73
2023/04/07 12:10:40;;;;;;;10.00;5.83;;;5.20;23.80;;;;;;8289784;28;20293;-71
2023/04/07 12:14:50;;;;;;;9.80;6.80;;;5.30;1.00;;;;;;8295925;28;20221;-69
2023/04/07 12:19:01;;;;;;;9.40;7.03;;;5.10;1.60;;;;;;8242915;28;20233;-71
2023/04/07 12:23:02;;;;;;;11.07;6.80;;;5.10;23.50;;;;;;8240588;28;20207;-70
2023/04/07 12:27:03;;;;;;;11.87;7.40;;;5.10;13.00;;;;;;8226212;28;20200;-70
2023/04/07 12:31:07;;;;;;;14.73;7.90;;;4.80;31.90;;;;;;8237874;28;20192;-71
2023/04/07 12:35:08;;;;;;;12.80;7.80;;;4.80;35.20;;;;;;8234163;28;20196;-71
2023/04/07 12:39:09;;;;;;;13.47;8.13;;;4.70;61.10;;;;;;8218621;28;20408;-71
2023/04/07 12:43:31;;;;;;;13.00;8.20;;;4.90;51.80;;;;;;8229662;28;20311;-72
2023/04/07 12:47:32;;;;;;;15.33;10.93;;;4.90;41.80;;;;;;8249262;28;20212;-71
2023/04/07 12:51:34;;;;;;;11.90;8.03;;;4.90;29.20;;;;;;8301701;28;20221;-71
2023/04/07 12:55:38;;;;;;;14.23;8.20;;;5.00;18.10;;;;;;8291462;28;20206;-73
2023/04/07 12:59:49;;;;;;;12.00;8.37;;;5.10;11.00;;;;;;8292981;28;20256;-72
2023/04/07 13:03:53;;;;;;;11.43;8.20;;;5.20;21.90;;;;;;8312166;28;20216;-71
2023/04/07 13:08:03;;;;;;;13.37;8.20;;;5.10;22.30;;;;;;8308220;28;20186;-70
2023/04/07 13:12:04;;;;;;;15.53;8.83;;;4.90;43.90;;;;;;8296893;28;20238;-71
2023/04/07 13:16:05;;;;;;;16.30;7.93;;;5.00;45.70;;;;;;8308431;28;20201;-72
2023/04/07 13:20:07;;;;;;;12.37;8.30;;;5.10;61.70;;;;;;8299621;28;20210;-71
2023/04/07 13:24:29;;;;;;;11.40;7.63;;;5.10;29.30;;;;;;8309111;28;20242;-72
2023/04/07 13:28:30;;;;;;;15.00;8.97;;;5.00;90.80;;;;;;8307349;28;20190;-72
2023/04/07 13:32:37;;;;;;;13.67;8.47;;;5.20;99.90;;;;;;8313254;28;20210;-71
2023/04/07 13:36:52;;;;;;;;;;;;;;;;;;;;;
2023/04/07 13:41:02;;;;;;;12.43;7.47;;;5.40;89.80;;;;;;8302266;28;20233;-71
2023/04/07 13:45:09;;;;;;;14.40;7.77;;;5.30;86.90;;;;;;8307578;28;20186;-72
2023/04/07 13:49:10;;;;;;;11.37;7.83;;;5.40;99.90;;;;;;8293620;28;20193;-71
2023/04/07 13:53:17;;;;;;;10.70;7.70;;;5.40;99.90;;;;;;8307067;28;20234;-72
2023/04/07 13:57:30;;;;;;;10.13;6.83;;;5.30;75.40;;;;;;8310049;28;20269;-70
2023/04/07 14:01:35;;;;;;;12.67;8.07;;;5.20;99.90;;;;;;8295389;28;20203;-71
2023/04/07 14:05:39;;;;;;;12.27;7.50;;;5.20;99.90;;;;;;8308742;28;20182;-71
2023/04/07 14:09:47;;;;;;;11.17;7.33;;;5.20;96.20;;;;;;8309528;28;20361;-71
2023/04/07 14:13:49;;;;;;;10.97;7.53;;;5.20;99.90;;;;;;8291177;28;20237;-71
2023/04/07 14:17:49;;;;;;;10.80;6.73;;;5.30;57.10;;;;;;8310236;28;20179;-71
2023/04/07 14:21:54;;;;;;;12.03;8.00;;;5.20;99.90;;;;;;8310885;28;20188;-71
2023/04/07 14:25:58;;;;;;;11.43;7.60;;;5.10;99.90;;;;;;8306360;28;20190;-71
2023/04/07 14:30:00;;;;;;;12.73;9.37;;;5.20;98.90;;;;;;8315374;28;20193;-71
2023/04/07 14:34:01;;;;;;;12.33;7.57;;;5.30;99.90;;;;;;8292930;28;20308;-71
2023/04/07 14:38:05;;;;;;;10.80;7.63;;;5.30;99.90;;;;;;8287704;28;20268;-72
2023/04/07 14:42:07;;;;;;;16.30;9.50;;;5.20;99.90;;;;;;8310715;28;20301;-71
2023/04/07 14:46:08;;;;;;;15.33;9.73;;;5.20;99.90;;;;;;8292029;28;20182;-71
2023/04/07 14:50:14;;;;;;;13.33;8.23;;;5.20;99.90;;;;;;8293296;28;20186;-71
2023/04/07 14:54:30;;;;;;;14.60;8.07;;;5.30;99.90;;;;;;8325525;23;20222;-74
2023/04/07 14:58:41;;;;;;;14.60;7.63;;;5.20;99.90;;;;;;8316708;28;20183;-74
2023/04/07 15:02:42;;;;;;;10.87;8.23;;;5.10;99.90;;;;;;8300504;28;20203;-73
2023/04/07 15:06:51;;;;;;;11.87;8.47;;;5.10;99.90;;;;;;8316285;28;20186;-74
2023/04/07 15:10:55;;;;;;;9.47;7.83;;;5.00;99.90;;;;;;8295476;28;20183;-73
2023/04/07 15:14:56;;;;;;;11.53;7.53;;;5.00;99.90;;;;;;8295319;28;20288;-72
2023/04/07 15:18:58;;;;;;;13.70;8.20;;;5.00;99.90;;;;;;8291639;28;20237;-73
2023/04/07 15:23:02;;;;;;;9.40;7.20;;;5.00;99.90;;;;;;8294041;28;20221;-73
2023/04/07 15:27:04;;;;;;;15.37;10.47;;;4.90;99.90;;;;;;8298905;28;20228;-73
2023/04/07 15:31:16;;;;;;;9.80;7.67;;;4.80;99.90;;;;;;8299353;28;20244;-72
2023/04/07 15:35:17;;;;;;;13.13;9.33;;;4.80;1.00;;;;;;8299142;28;20190;-72
2023/04/07 15:39:21;;;;;;;19.40;11.70;;;4.70;1.00;;;;;;8308041;28;20269;-73
2023/04/07 15:43:22;;;;;;;16.53;10.13;;;4.70;1.00;;;;;;8302020;28;20191;-71
2023/04/07 15:47:35;;;;;;;11.40;8.67;;;4.60;1.00;;;;;;8303540;28;20190;-71
2023/04/07 15:51:36;;;;;;;14.37;9.27;;;4.50;1.00;;;;;;8316749;28;20253;-72
2023/04/07 15:55:40;;;;;;;13.93;10.37;;;4.50;1.00;;;;;;8283858;28;20197;-72
2023/04/07 15:59:41;;;;;;;13.33;9.50;;;4.50;94.10;;;;;;8285153;28;20194;-72
2023/04/07 16:03:42;;;;;;;12.40;9.17;;;4.50;99.90;;;;;;8302741;28;20190;-72
2023/04/07 16:07:43;;;;;;;12.73;9.30;;;4.40;99.90;;;;;;8291312;28;20251;-71
2023/04/07 16:11:44;;;;;;;13.43;9.20;;;4.40;99.90;;;;;;8289262;28;20340;-72
2023/04/07 16:15:45;;;;;;;12.10;8.93;;;4.30;1.00;;;;;;8284458;28;20186;-72
2023/04/07 16:19:46;;;;;;;16.60;11.60;;;4.30;99.90;;;;;;8290630;28;20203;-70
2023/04/07 16:23:47;;;;;;;11.57;9.37;;;4.30;99.90;;;;;;8302431;28;20195;-70
2023/04/07 16:27:51;;;;;;;14.07;10.33;;;4.30;1.00;;;;;;8307233;28;20248;-71
2023/04/07 16:31:52;;;;;;;14.10;10.70;;;4.20;1.00;;;;;;8289678;28;20219;-72
2023/04/07 16:35:53;;;;;;;13.67;10.13;;;4.20;99.90;;;;;;8288616;28;20219;-72
2023/04/07 16:39:56;;;;;;;13.30;10.37;;;4.10;98.20;;;;;;8300794;28;20205;-71
2023/04/07 16:43:57;;;;;;;15.20;10.83;;;4.10;99.90;;;;;;8303585;28;20192;-71
2023/04/07 16:47:58;;;;;;;18.50;13.50;;;4.10;99.90;;;;;;8276166;28;20185;-71
2023/04/07 16:52:02;;;;;;;15.97;11.07;;;4.10;1.00;;;;;;8286057;28;20222;-71
2023/04/07 16:56:20;;;;;;;15.87;12.20;;;4.00;99.90;;;;;;8278529;28;20193;-71
2023/04/07 17:00:21;;;;;;;16.40;11.70;;;4.00;99.90;;;;;;8280284;28;20214;-67
2023/04/07 17:04:22;;;;;;;18.67;11.77;;;4.00;1.00;;;;;;8295822;28;20248;-66
2023/04/07 17:08:24;;;;;;;17.30;12.17;;;4.00;99.90;;;;;;8297038;28;20197;-66
2023/04/07 17:12:25;;;;;;;17.67;12.83;;;3.90;99.90;;;;;;8298037;28;20296;-67
2023/04/07 17:16:29;;;;;;;17.47;13.27;;;3.90;99.90;;;;;;8285610;28;20192;-66
2023/04/07 17:20:29;;;;;;;17.33;12.97;;;3.90;99.90;;;;;;8279970;28;20198;-66
2023/04/07 17:24:33;;;;;;;17.00;13.03;;;3.90;99.90;;;;;;8271326;28;20186;-66
2023/04/07 17:28:41;;;;;;;16.60;12.53;;;3.90;99.90;;;;;;8299681;28;20218;-67
2023/04/07 17:32:42;;;;;;;16.13;12.30;;;3.90;99.90;;;;;;8273358;28;20273;-69
2023/04/07 17:36:43;;;;;;;17.93;12.80;;;3.90;99.90;;;;;;8289654;28;20348;-68
2023/04/07 17:40:44;;;;;;;17.93;13.93;;;3.90;99.90;;;;;;8281902;28;20213;-67
2023/04/07 17:44:48;;;;;;;19.93;13.77;;;3.90;99.90;;;;;;8279650;28;20191;-69
2023/04/07 17:48:53;;;;;;;16.30;12.80;;;3.90;99.90;;;;;;8294963;28;20253;-68
2023/04/07 17:52:55;;;;;;;16.63;12.50;;;3.80;99.90;;;;;;8298194;28;20218;-69
2023/04/07 17:56:56;;;;;;;16.03;12.00;;;3.80;99.90;;;;;;8280227;28;20271;-71
2023/04/07 18:00:58;;;;;;;17.00;12.43;;;3.80;99.90;;;;;;8279142;28;20216;-70
2023/04/07 18:05:02;;;;;;;17.47;11.83;;;3.80;99.90;;;;;;8277374;28;20185;-70
2023/04/07 18:09:18;;;;;;;16.40;11.27;;;3.80;99.90;;;;;;8438795;27;20345;-70
2023/04/07 18:13:19;;;;;;;15.40;12.10;;;3.80;99.90;;;;;;8410917;28;20198;-71
2023/04/07 18:17:23;;;;;;;16.40;11.70;;;3.70;99.90;;;;;;8400859;28;20186;-70
2023/04/07 18:21:28;;;;;;;16.10;12.37;;;3.70;99.90;;;;;;8401974;28;20192;-69
2023/04/07 18:25:29;;;;;;;17.40;11.60;;;3.70;99.90;;;;;;8403234;28;20186;-69
2023/04/07 18:29:30;;;;;;;17.60;12.97;;;3.70;99.90;;;;;;8411600;28;20191;-69
2023/04/07 18:33:35;;;;;;;17.73;12.63;;;3.70;99.90;;;;;;8405112;28;20272;-70
2023/04/07 18:37:36;;;;;;;18.27;13.30;;;3.70;99.90;;;;;;8417951;27;20205;-68
2023/04/07 18:41:37;;;;;;;16.33;12.20;;;3.70;99.90;;;;;;8413677;28;20184;-68
2023/04/07 18:45:42;;;;;;;17.43;12.73;;;3.80;99.90;;;;;;8408772;28;20240;-69
2023/04/07 18:49:45;;;;;;;16.07;12.17;;;3.80;99.90;;;;;;8409861;28;20186;-69
2023/04/07 18:53:49;;;;;;;15.83;11.07;;;3.70;99.90;;;;;;8410573;28;20201;-69
2023/04/07 18:57:51;;;;;;;14.83;11.50;;;3.70;99.90;;;;;;8407577;28;20181;-68
2023/04/07 19:01:59;;;;;;;16.20;11.60;;;3.70;99.90;;;;;;8401830;28;20181;-69
2023/04/07 19:06:04;;;;;;;16.20;11.37;;;3.70;99.90;;;;;;8403079;28;20219;-68
2023/04/07 19:10:11;;;;;;;16.60;10.80;;;3.70;99.90;;;;;;8399982;28;20292;-66
2023/04/07 19:14:17;;;;;;;15.63;11.37;;;3.70;99.90;;;;;;8405407;28;20295;-67
2023/04/07 19:18:25;;;;;;;14.10;10.27;;;3.70;99.90;;;;;;8391545;28;20212;-67
2023/04/07 19:22:26;;;;;;;14.73;10.30;;;3.70;99.90;;;;;;8385543;28;20196;-66
2023/04/07 19:26:29;;;;;;;15.43;11.03;;;3.70;99.90;;;;;;8386100;28;20241;-66
2023/04/07 19:30:30;;;;;;;14.83;9.83;;;3.70;99.90;;;;;;8393421;28;20296;-66
2023/04/07 19:34:31;;;;;;;16.40;10.57;;;3.70;99.90;;;;;;8384128;28;20233;-66
2023/04/07 19:38:38;;;;;;;12.60;9.57;;;3.70;99.90;;;;;;8389726;28;20237;-67
2023/04/07 19:42:44;;;;;;;14.17;10.40;;;3.70;99.90;;;;;;8387198;28;20273;-68
2023/04/07 19:46:52;;;;;;;12.63;9.70;;;3.70;99.90;;;;;;8392802;28;20222;-69
2023/04/07 19:50:53;;;;;;;11.47;9.40;;;3.70;99.90;;;;;;8384276;28;20200;-68
2023/04/07 19:54:54;;;;;;;10.67;9.13;;;3.70;99.90;;;;;;8382431;28;20188;-68
2023/04/07 19:58:55;;;;;;;11.33;8.83;;;3.70;99.90;;;;;;8380098;28;20192;-68
2023/04/07 20:02:57;;;;;;;11.03;8.80;;;3.70;99.90;;;;;;8390017;28;20188;-68
2023/04/07 20:07:01;;;;;;;13.10;9.00;;;3.70;99.90;;;;;;8380321;28;20260;-68
2023/04/07 20:11:02;;;;;;;11.30;8.10;;;3.70;99.90;;;;;;8381068;28;20177;-68
2023/04/07 20:15:05;;;;;;;9.47;7.77;;;3.70;99.90;;;;;;8377678;28;20208;-68
2023/04/07 20:19:06;;;;;;;9.23;7.60;;;3.70;99.90;;;;;;8379981;28;20205;-69
2023/04/07 20:23:08;;;;;;;10.60;8.03;;;3.70;99.90;;;;;;8383228;28;20216;-69
2023/04/07 20:27:09;;;;;;;11.97;8.33;;;3.70;99.90;;;;;;8380303;28;20209;-69
2023/04/07 20:31:13;;;;;;;10.27;7.83;;;3.70;99.90;;;;;;8382584;28;20199;-69
2023/04/07 20:35:14;;;;;;;11.57;8.40;;;3.70;99.90;;;;;;8385223;28;20276;-69
2023/04/07 20:39:16;;;;;;;11.97;8.53;;;3.70;99.90;;;;;;8381393;28;20296;-69
2023/04/07 20:43:22;;;;;;;12.17;8.23;;;3.70;99.90;;;;;;8380896;28;20185;-68
2023/04/07 20:47:23;;;;;;;12.00;8.27;;;3.70;99.90;;;;;;8386173;28;20231;-69
2023/04/07 20:51:24;;;;;;;11.37;8.73;;;3.70;99.90;;;;;;8383214;28;20204;-69
2023/04/07 20:55:28;;;;;;;13.13;8.40;;;3.70;99.90;;;;;;8390789;28;20331;-70
2023/04/07 20:59:32;;;;;;;10.93;8.23;;;3.70;99.90;;;;;;8382126;28;20279;-68
2023/04/07 21:03:35;;;;;;;12.80;9.20;;;3.70;99.90;;;;;;8381615;28;20190;-70
2023/04/07 21:07:36;;;;;;;12.40;9.47;;;3.70;99.90;;;;;;8382875;28;20226;-67
2023/04/07 21:11:37;;;;;;;13.43;8.83;;;3.70;99.90;;;;;;8379195;28;20236;-68
2023/04/07 21:15:42;;;;;;;11.90;8.87;;;3.70;99.90;;;;;;8378787;28;20183;-69
2023/04/07 21:19:43;;;;;;;19.13;10.57;;;3.70;99.90;;;;;;8381206;28;20178;-69
2023/04/07 21:23:48;;;;;;;15.37;9.80;;;3.70;99.90;;;;;;8385276;28;20221;-69